sensor_id;sensor_type;location;lat;lon;timestamp;pressure;altitude;pressure_sealevel;temperature;humidity
1207;BME280;593;53.184;8.216;2023-05-10T00:01:15;100331.91;;;18.35;100.00
1207;BME280;593;53.184;8.216;2023-05-10T00:03:40;100335.03;;;18.33;100.00
1207;BME280;593;53.184;8.216;2023-05-10T00:06:06;100320.09;;;18.34;100.00
1207;BME280;593;53.184;8.216;2023-05-10T00:08:31;100326.78;;;18.33;100.00
1207;BME280;593;53.184;8.216;2023-05-10T00:10:57;100324.00;;;18.33;100.00
1207;BME280;593;53.184;8.216;2023-05-10T00:13:22;100321.13;;;18.30;100.00
1207;BME280;593;53.184;8.216;2023-05-10T00:15:47;100316.06;;;18.32;100.00
1207;BME280;593;53.184;8.216;2023-05-10T00:18:13;100320.00;;;18.31;100.00
1207;BME280;593;53.184;8.216;2023-05-10T00:20:38;100318.38;;;18.30;100.00
1207;BME280;593;53.184;8.216;2023-05-10T00:23:03;100315.84;;;18.25;100.00
1207;BME280;593;53.184;8.216;2023-05-10T00:25:29;100318.25;;;18.26;100.00
1207;BME280;593;53.184;8.216;2023-05-10T00:27:54;100317.09;;;18.27;100.00
1207;BME280;593;53.184;8.216;2023-05-10T00:30:22;100313.91;;;18.25;100.00
1207;BME280;593;53.184;8.216;2023-05-10T00:32:47;100313.44;;;18.23;100.00
1207;BME280;593;53.184;8.216;2023-05-10T00:35:15;100303.22;;;18.24;100.00
1207;BME280;593;53.184;8.216;2023-05-10T00:37:40;100307.13;;;18.23;100.00
1207;BME280;593;53.184;8.216;2023-05-10T00:40:06;100298.06;;;18.22;100.00
1207;BME280;593;53.184;8.216;2023-05-10T00:42:32;100294.03;;;18.20;100.00
1207;BME280;593;53.184;8.216;2023-05-10T00:44:58;100300.34;;;18.20;100.00
1207;BME280;593;53.184;8.216;2023-05-10T00:47:23;100311.38;;;18.20;100.00
1207;BME280;593;53.184;8.216;2023-05-10T00:49:49;100305.72;;;18.17;100.00
1207;BME280;593;53.184;8.216;2023-05-10T00:52:15;100297.47;;;18.17;100.00
1207;BME280;593;53.184;8.216;2023-05-10T00:54:41;100302.16;;;18.16;100.00
1207;BME280;593;53.184;8.216;2023-05-10T00:57:06;100300.56;;;18.15;100.00
1207;BME280;593;53.184;8.216;2023-05-10T00:59:32;100292.63;;;18.14;100.00
1207;BME280;593;53.184;8.216;2023-05-10T01:01:57;100285.19;;;18.14;100.00
1207;BME280;593;53.184;8.216;2023-05-10T01:04:23;100279.59;;;18.11;100.00
1207;BME280;593;53.184;8.216;2023-05-10T01:06:51;100283.91;;;18.12;100.00
1207;BME280;593;53.184;8.216;2023-05-10T01:09:17;100283.13;;;18.11;100.00
1207;BME280;593;53.184;8.216;2023-05-10T01:11:43;100275.22;;;18.10;100.00
1207;BME280;593;53.184;8.216;2023-05-10T01:14:08;100274.41;;;18.09;100.00
1207;BME280;593;53.184;8.216;2023-05-10T01:16:37;100277.50;;;18.08;100.00
1207;BME280;593;53.184;8.216;2023-05-10T01:19:12;100277.06;;;18.06;100.00
1207;BME280;593;53.184;8.216;2023-05-10T01:21:56;100271.88;;;18.04;100.00
1207;BME280;593;53.184;8.216;2023-05-10T01:27:38;100272.69;;;18.05;100.00
1207;BME280;593;53.184;8.216;2023-05-10T01:35:44;100277.28;;;18.01;100.00
1207;BME280;593;53.184;8.216;2023-05-10T01:43:42;100274.75;;;17.96;100.00
1207;BME280;593;53.184;8.216;2023-05-10T01:46:11;100268.06;;;17.97;100.00
1207;BME280;593;53.184;8.216;2023-05-10T01:48:54;100265.66;;;17.95;100.00
1207;BME280;593;53.184;8.216;2023-05-10T01:51:23;100264.53;;;17.96;100.00
1207;BME280;593;53.184;8.216;2023-05-10T01:53:54;100258.91;;;17.92;100.00
1207;BME280;593;53.184;8.216;2023-05-10T01:56:26;100259.72;;;17.93;100.00
1207;BME280;593;53.184;8.216;2023-05-10T01:58:52;100259.56;;;17.89;100.00
1207;BME280;593;53.184;8.216;2023-05-10T02:01:20;100260.38;;;17.90;100.00
1207;BME280;593;53.184;8.216;2023-05-10T02:03:46;100257.19;;;17.88;100.00
1207;BME280;593;53.184;8.216;2023-05-10T02:06:12;100260.75;;;17.88;100.00
1207;BME280;593;53.184;8.216;2023-05-10T02:08:41;100271.38;;;17.90;100.00
1207;BME280;593;53.184;8.216;2023-05-10T02:11:06;100267.84;;;17.89;100.00
1207;BME280;593;53.184;8.216;2023-05-10T02:13:35;100259.47;;;17.86;100.00
1207;BME280;593;53.184;8.216;2023-05-10T02:16:03;100270.00;;;17.84;100.00
1207;BME280;593;53.184;8.216;2023-05-10T02:18:29;100261.28;;;17.82;100.00
1207;BME280;593;53.184;8.216;2023-05-10T02:20:57;100269.66;;;17.85;100.00
1207;BME280;593;53.184;8.216;2023-05-10T02:23:23;100267.94;;;17.81;100.00
1207;BME280;593;53.184;8.216;2023-05-10T02:25:51;100269.53;;;17.82;100.00
1207;BME280;593;53.184;8.216;2023-05-10T02:28:19;100271.00;;;17.79;100.00
1207;BME280;593;53.184;8.216;2023-05-10T02:30:46;100271.00;;;17.79;100.00
1207;BME280;593;53.184;8.216;2023-05-10T02:33:13;100277.69;;;17.78;100.00
1207;BME280;593;53.184;8.216;2023-05-10T02:35:39;100272.97;;;17.79;100.00
1207;BME280;593;53.184;8.216;2023-05-10T02:38:06;100278.00;;;17.77;100.00
1207;BME280;593;53.184;8.216;2023-05-10T02:40:33;100276.41;;;17.76;100.00
1207;BME280;593;53.184;8.216;2023-05-10T02:43:01;100270.41;;;17.74;100.00
1207;BME280;593;53.184;8.216;2023-05-10T02:45:29;100264.00;;;17.70;100.00
1207;BME280;593;53.184;8.216;2023-05-10T02:47:56;100278.66;;;17.74;100.00
1207;BME280;593;53.184;8.216;2023-05-10T02:50:22;100279.84;;;17.73;100.00
1207;BME280;593;53.184;8.216;2023-05-10T02:52:51;100270.31;;;17.70;100.00
1207;BME280;593;53.184;8.216;2023-05-10T02:55:19;100278.22;;;17.72;100.00
1207;BME280;593;53.184;8.216;2023-05-10T02:57:51;100281.78;;;17.72;100.00
1207;BME280;593;53.184;8.216;2023-05-10T03:00:17;100265.94;;;17.69;100.00
1207;BME280;593;53.184;8.216;2023-05-10T03:02:43;100274.66;;;17.71;100.00
1207;BME280;593;53.184;8.216;2023-05-10T03:05:08;100268.69;;;17.69;100.00
1207;BME280;593;53.184;8.216;2023-05-10T03:07:34;100262.06;;;17.70;100.00
1207;BME280;593;53.184;8.216;2023-05-10T03:09:59;100265.13;;;17.69;100.00
1207;BME280;593;53.184;8.216;2023-05-10T03:12:47;100273.06;;;17.70;100.00
1207;BME280;593;53.184;8.216;2023-05-10T03:17:56;100269.03;;;17.68;100.00
1207;BME280;593;53.184;8.216;2023-05-10T03:20:25;100262.59;;;17.64;100.00
1207;BME280;593;53.184;8.216;2023-05-10T03:22:55;100272.13;;;17.66;100.00
1207;BME280;593;53.184;8.216;2023-05-10T03:25:22;100266.50;;;17.63;100.00
1207;BME280;593;53.184;8.216;2023-05-10T03:27:49;100264.22;;;17.65;100.00
1207;BME280;593;53.184;8.216;2023-05-10T03:30:15;100274.41;;;17.64;100.00
1207;BME280;593;53.184;8.216;2023-05-10T03:32:41;100275.22;;;17.65;100.00
1207;BME280;593;53.184;8.216;2023-05-10T03:35:10;100272.81;;;17.63;100.00
1207;BME280;593;53.184;8.216;2023-05-10T03:37:36;100261.69;;;17.60;100.00
1207;BME280;593;53.184;8.216;2023-05-10T03:40:02;100268.00;;;17.60;100.00
1207;BME280;593;53.184;8.216;2023-05-10T03:42:28;100270.75;;;17.60;100.00
1207;BME280;593;53.184;8.216;2023-05-10T03:44:53;100260.88;;;17.59;100.00
1207;BME280;593;53.184;8.216;2023-05-10T03:47:19;100275.78;;;17.58;100.00
1207;BME280;593;53.184;8.216;2023-05-10T03:49:44;100277.56;;;17.54;100.00
1207;BME280;593;53.184;8.216;2023-05-10T03:52:10;100278.03;;;17.56;100.00
1207;BME280;593;53.184;8.216;2023-05-10T03:54:35;100284.69;;;17.55;100.00
1207;BME280;593;53.184;8.216;2023-05-10T03:57:00;100275.47;;;17.51;100.00
1207;BME280;593;53.184;8.216;2023-05-10T03:59:26;100284.53;;;17.52;100.00
1207;BME280;593;53.184;8.216;2023-05-10T04:01:51;100280.97;;;17.51;100.00
1207;BME280;593;53.184;8.216;2023-05-10T04:04:17;100284.41;;;17.48;100.00
1207;BME280;593;53.184;8.216;2023-05-10T04:06:43;100280.03;;;17.47;100.00
1207;BME280;593;53.184;8.216;2023-05-10T04:09:09;100276.84;;;17.45;100.00
1207;BME280;593;53.184;8.216;2023-05-10T04:11:34;100270.53;;;17.45;100.00
1207;BME280;593;53.184;8.216;2023-05-10T04:14:00;100277.28;;;17.47;100.00
1207;BME280;593;53.184;8.216;2023-05-10T04:16:25;100270.19;;;17.46;100.00
1207;BME280;593;53.184;8.216;2023-05-10T04:18:50;100275.56;;;17.43;100.00
1207;BME280;593;53.184;8.216;2023-05-10T04:21:16;100275.41;;;17.39;100.00
1207;BME280;593;53.184;8.216;2023-05-10T04:23:41;100277.03;;;17.40;100.00
1207;BME280;593;53.184;8.216;2023-05-10T04:26:06;100269.13;;;17.39;100.00
1207;BME280;593;53.184;8.216;2023-05-10T04:28:32;100275.78;;;17.38;100.00
1207;BME280;593;53.184;8.216;2023-05-10T04:31:07;100275.78;;;17.38;100.00
1207;BME280;593;53.184;8.216;2023-05-10T04:33:33;100277.72;;;17.37;100.00
1207;BME280;593;53.184;8.216;2023-05-10T04:35:59;100279.34;;;17.38;100.00
1207;BME280;593;53.184;8.216;2023-05-10T04:38:25;100278.53;;;17.38;100.00
1207;BME280;593;53.184;8.216;2023-05-10T04:40:52;100285.16;;;17.37;100.00
1207;BME280;593;53.184;8.216;2023-05-10T04:43:17;100282.41;;;17.37;100.00
1207;BME280;593;53.184;8.216;2023-05-10T04:45:42;100285.50;;;17.35;100.00
1207;BME280;593;53.184;8.216;2023-05-10T04:48:08;100295.69;;;17.35;100.00
1207;BME280;593;53.184;8.216;2023-05-10T04:50:33;100287.28;;;17.31;100.00
1207;BME280;593;53.184;8.216;2023-05-10T04:52:58;100298.78;;;17.33;100.00
1207;BME280;593;53.184;8.216;2023-05-10T04:55:24;100289.59;;;17.29;100.00
1207;BME280;593;53.184;8.216;2023-05-10T04:57:50;100302.88;;;17.27;100.00
1207;BME280;593;53.184;8.216;2023-05-10T05:00:15;100309.16;;;17.27;100.00
1207;BME280;593;53.184;8.216;2023-05-10T05:02:45;100313.50;;;17.28;100.00
1207;BME280;593;53.184;8.216;2023-05-10T05:05:11;100316.97;;;17.25;100.00
1207;BME280;593;53.184;8.216;2023-05-10T05:07:36;100314.53;;;17.24;100.00
1207;BME280;593;53.184;8.216;2023-05-10T05:10:04;100328.94;;;17.21;100.00
1207;BME280;593;53.184;8.216;2023-05-10T05:12:30;100327.81;;;17.22;100.00
1207;BME280;593;53.184;8.216;2023-05-10T05:14:55;100324.59;;;17.20;100.00
1207;BME280;593;53.184;8.216;2023-05-10T05:17:23;100327.69;;;17.18;100.00
1207;BME280;593;53.184;8.216;2023-05-10T05:19:49;100326.72;;;17.14;100.00
1207;BME280;593;53.184;8.216;2023-05-10T05:22:14;100331.09;;;17.15;100.00
1207;BME280;593;53.184;8.216;2023-05-10T05:24:39;100319.16;;;17.11;100.00
1207;BME280;593;53.184;8.216;2023-05-10T05:27:05;100329.00;;;17.12;100.00
1207;BME280;593;53.184;8.216;2023-05-10T05:29:31;100335.63;;;17.11;100.00
1207;BME280;593;53.184;8.216;2023-05-10T05:31:56;100339.53;;;17.10;100.00
1207;BME280;593;53.184;8.216;2023-05-10T05:34:21;100339.06;;;17.08;100.00
1207;BME280;593;53.184;8.216;2023-05-10T05:36:47;100340.19;;;17.07;100.00
1207;BME280;593;53.184;8.216;2023-05-10T05:39:13;100352.00;;;17.08;100.00
1207;BME280;593;53.184;8.216;2023-05-10T05:41:38;100351.53;;;17.06;100.00
1207;BME280;593;53.184;8.216;2023-05-10T05:44:03;100347.50;;;17.03;100.00
1207;BME280;593;53.184;8.216;2023-05-10T05:46:29;100351.22;;;16.99;100.00
1207;BME280;593;53.184;8.216;2023-05-10T05:48:54;100353.00;;;17.03;100.00
1207;BME280;593;53.184;8.216;2023-05-10T05:51:19;100356.88;;;17.02;100.00
1207;BME280;593;53.184;8.216;2023-05-10T05:53:45;100370.97;;;17.01;100.00
1207;BME280;593;53.184;8.216;2023-05-10T05:56:10;100355.94;;;16.98;100.00
1207;BME280;593;53.184;8.216;2023-05-10T05:58:35;100352.69;;;16.96;100.00
1207;BME280;593;53.184;8.216;2023-05-10T06:01:01;100360.63;;;16.98;100.00
1207;BME280;593;53.184;8.216;2023-05-10T06:03:26;100364.03;;;16.95;100.00
1207;BME280;593;53.184;8.216;2023-05-10T06:05:51;100362.41;;;16.94;100.00
1207;BME280;593;53.184;8.216;2023-05-10T06:08:17;100368.06;;;16.97;100.00
1207;BME280;593;53.184;8.216;2023-05-10T06:10:42;100373.91;;;16.96;100.00
1207;BME280;593;53.184;8.216;2023-05-10T06:13:07;100377.78;;;16.95;100.00
1207;BME280;593;53.184;8.216;2023-05-10T06:15:33;100371.47;;;16.94;100.00
1207;BME280;593;53.184;8.216;2023-05-10T06:17:58;100375.03;;;16.95;100.00
1207;BME280;593;53.184;8.216;2023-05-10T06:20:23;100370.34;;;16.95;100.00
1207;BME280;593;53.184;8.216;2023-05-10T06:22:49;100371.47;;;16.94;100.00
1207;BME280;593;53.184;8.216;2023-05-10T06:25:14;100372.28;;;16.95;100.00
1207;BME280;593;53.184;8.216;2023-05-10T06:27:40;100371.00;;;16.92;100.00
1207;BME280;593;53.184;8.216;2023-05-10T06:30:05;100373.75;;;16.92;100.00
1207;BME280;593;53.184;8.216;2023-05-10T06:32:31;100380.06;;;16.93;100.00
1207;BME280;593;53.184;8.216;2023-05-10T06:34:56;100386.38;;;16.93;100.00
1207;BME280;593;53.184;8.216;2023-05-10T06:37:21;100392.31;;;16.95;100.00
1207;BME280;593;53.184;8.216;2023-05-10T06:39:47;100395.06;;;16.95;100.00
1207;BME280;593;53.184;8.216;2023-05-10T06:42:12;100393.78;;;16.93;100.00
1207;BME280;593;53.184;8.216;2023-05-10T06:44:37;100403.78;;;16.97;100.00
1207;BME280;593;53.184;8.216;2023-05-10T06:47:03;100398.13;;;16.94;100.00
1207;BME280;593;53.184;8.216;2023-05-10T06:49:28;100402.97;;;16.97;100.00
1207;BME280;593;53.184;8.216;2023-05-10T06:51:55;100406.88;;;16.96;100.00
1207;BME280;593;53.184;8.216;2023-05-10T06:54:20;100411.69;;;16.99;100.00
1207;BME280;593;53.184;8.216;2023-05-10T06:56:46;100413.31;;;17.00;100.00
1207;BME280;593;53.184;8.216;2023-05-10T06:59:11;100402.66;;;16.98;100.00
1207;BME280;593;53.184;8.216;2023-05-10T07:01:38;100411.03;;;17.02;100.00
1207;BME280;593;53.184;8.216;2023-05-10T07:04:03;100412.66;;;17.03;100.00
1207;BME280;593;53.184;8.216;2023-05-10T07:06:29;100416.69;;;17.05;100.00
1207;BME280;593;53.184;8.216;2023-05-10T07:08:54;100407.97;;;17.03;100.00
1207;BME280;593;53.184;8.216;2023-05-10T07:11:20;100404.06;;;17.04;100.00
1207;BME280;593;53.184;8.216;2023-05-10T07:13:45;100410.03;;;17.06;100.00
1207;BME280;593;53.184;8.216;2023-05-10T07:16:11;100414.88;;;17.09;100.00
1207;BME280;593;53.184;8.216;2023-05-10T07:18:37;100413.75;;;17.10;100.00
1207;BME280;593;53.184;8.216;2023-05-10T07:21:02;100412.94;;;17.10;100.00
1207;BME280;593;53.184;8.216;2023-05-10T07:23:28;100414.56;;;17.11;100.00
1207;BME280;593;53.184;8.216;2023-05-10T07:25:54;100422.94;;;17.14;100.00
1207;BME280;593;53.184;8.216;2023-05-10T07:28:19;100426.97;;;17.17;100.00
1207;BME280;593;53.184;8.216;2023-05-10T07:30:45;100423.91;;;17.18;100.00
1207;BME280;593;53.184;8.216;2023-05-10T07:33:13;100432.16;;;17.18;100.00
1207;BME280;593;53.184;8.216;2023-05-10T07:35:39;100425.03;;;17.17;100.00
1207;BME280;593;53.184;8.216;2023-05-10T07:38:05;100430.63;;;17.21;100.00
1207;BME280;593;53.184;8.216;2023-05-10T07:40:31;100429.16;;;17.23;100.00
1207;BME280;593;53.184;8.216;2023-05-10T07:42:56;100426.78;;;17.22;100.00
1207;BME280;593;53.184;8.216;2023-05-10T07:45:22;100436.44;;;17.28;100.00
1207;BME280;593;53.184;8.216;2023-05-10T07:47:48;100428.84;;;17.25;100.00
1207;BME280;593;53.184;8.216;2023-05-10T07:50:13;100440.78;;;17.29;100.00
1207;BME280;593;53.184;8.216;2023-05-10T07:52:39;100440.47;;;17.30;100.00
1207;BME280;593;53.184;8.216;2023-05-10T07:55:05;100441.25;;;17.31;100.00
1207;BME280;593;53.184;8.216;2023-05-10T07:57:30;100443.22;;;17.30;100.00
1207;BME280;593;53.184;8.216;2023-05-10T07:59:56;100452.75;;;17.33;100.00
1207;BME280;593;53.184;8.216;2023-05-10T08:02:21;100452.41;;;17.35;100.00
1207;BME280;593;53.184;8.216;2023-05-10T08:04:46;100454.03;;;17.36;100.00
1207;BME280;593;53.184;8.216;2023-05-10T08:07:12;100449.31;;;17.36;100.00
1207;BME280;593;53.184;8.216;2023-05-10T08:09:37;100455.31;;;17.38;100.00
1207;BME280;593;53.184;8.216;2023-05-10T08:12:02;100453.03;;;17.40;100.00
1207;BME280;593;53.184;8.216;2023-05-10T08:14:29;100457.88;;;17.43;100.00
1207;BME280;593;53.184;8.216;2023-05-10T08:16:54;100457.38;;;17.41;100.00
1207;BME280;593;53.184;8.216;2023-05-10T08:19:20;100458.34;;;17.45;100.00
1207;BME280;593;53.184;8.216;2023-05-10T08:21:47;100458.66;;;17.44;100.00
1207;BME280;593;53.184;8.216;2023-05-10T08:24:12;100459.16;;;17.46;100.00
1207;BME280;593;53.184;8.216;2023-05-10T08:26:38;100465.13;;;17.48;100.00
1207;BME280;593;53.184;8.216;2023-05-10T08:29:03;100465.44;;;17.46;100.00
1207;BME280;593;53.184;8.216;2023-05-10T08:31:28;100466.72;;;17.49;100.00
1207;BME280;593;53.184;8.216;2023-05-10T08:33:54;100466.91;;;17.52;100.00
1207;BME280;593;53.184;8.216;2023-05-10T08:36:20;100471.25;;;17.53;100.00
1207;BME280;593;53.184;8.216;2023-05-10T08:38:53;100470.56;;;17.56;100.00
1207;BME280;593;53.184;8.216;2023-05-10T08:41:23;100475.75;;;17.58;100.00
1207;BME280;593;53.184;8.216;2023-05-10T08:43:52;100475.41;;;17.59;100.00
1207;BME280;593;53.184;8.216;2023-05-10T08:46:18;100478.16;;;17.59;100.00
1207;BME280;593;53.184;8.216;2023-05-10T08:48:45;100484.13;;;17.61;100.00
1207;BME280;593;53.184;8.216;2023-05-10T08:51:17;100468.81;;;17.52;100.00
1207;BME280;593;53.184;8.216;2023-05-10T08:53:43;100478.31;;;17.63;100.00
1207;BME280;593;53.184;8.216;2023-05-10T08:56:10;100483.47;;;17.64;100.00
1207;BME280;593;53.184;8.216;2023-05-10T08:58:36;100492.38;;;17.61;100.00
1207;BME280;593;53.184;8.216;2023-05-10T09:01:02;100497.56;;;17.63;100.00
1207;BME280;593;53.184;8.216;2023-05-10T09:03:28;100496.41;;;17.64;100.00
1207;BME280;593;53.184;8.216;2023-05-10T09:05:54;100503.19;;;17.66;100.00
1207;BME280;593;53.184;8.216;2023-05-10T09:08:22;100497.22;;;17.64;100.00
1207;BME280;593;53.184;8.216;2023-05-10T09:10:50;100504.00;;;17.67;100.00
1207;BME280;593;53.184;8.216;2023-05-10T09:13:16;100505.63;;;17.68;100.00
1207;BME280;593;53.184;8.216;2023-05-10T09:15:44;100512.41;;;17.70;100.00
1207;BME280;593;53.184;8.216;2023-05-10T09:18:10;100509.66;;;17.70;100.00
1207;BME280;593;53.184;8.216;2023-05-10T09:20:35;100514.81;;;17.72;100.00
1207;BME280;593;53.184;8.216;2023-05-10T09:23:00;100505.75;;;17.71;100.00
1207;BME280;593;53.184;8.216;2023-05-10T09:25:26;100504.28;;;17.74;100.00
1207;BME280;593;53.184;8.216;2023-05-10T09:27:52;100501.88;;;17.72;100.00
1207;BME280;593;53.184;8.216;2023-05-10T09:30:25;100520.94;;;17.77;100.00
1207;BME280;593;53.184;8.216;2023-05-10T09:32:51;100511.06;;;17.76;100.00
1207;BME280;593;53.184;8.216;2023-05-10T09:35:20;100507.53;;;17.76;100.00
1207;BME280;593;53.184;8.216;2023-05-10T09:37:48;100514.78;;;17.80;100.00
1207;BME280;593;53.184;8.216;2023-05-10T09:40:18;100520.75;;;17.82;100.00
1207;BME280;593;53.184;8.216;2023-05-10T09:45:24;100495.38;;;17.77;100.00
1207;BME280;593;53.184;8.216;2023-05-10T09:47:50;100523.75;;;17.89;100.00
1207;BME280;593;53.184;8.216;2023-05-10T09:50:15;100514.38;;;17.90;100.00
1207;BME280;593;53.184;8.216;2023-05-10T09:55:23;100515.31;;;17.94;100.00
1207;BME280;593;53.184;8.216;2023-05-10T09:57:50;100525.66;;;17.98;100.00
1207;BME280;593;53.184;8.216;2023-05-10T10:00:23;100521.78;;;17.99;100.00
1207;BME280;593;53.184;8.216;2023-05-10T10:02:59;100524.66;;;18.02;100.00
1207;BME280;593;53.184;8.216;2023-05-10T10:05:31;100523.97;;;18.05;100.00
1207;BME280;593;53.184;8.216;2023-05-10T10:07:58;100533.16;;;18.09;100.00
1207;BME280;593;53.184;8.216;2023-05-10T10:10:25;100538.81;;;18.13;100.00
1207;BME280;593;53.184;8.216;2023-05-10T10:12:51;100525.06;;;18.13;100.00
1207;BME280;593;53.184;8.216;2023-05-10T10:15:16;100522.09;;;18.18;100.00
1207;BME280;593;53.184;8.216;2023-05-10T10:17:43;100529.56;;;18.17;100.00
1207;BME280;593;53.184;8.216;2023-05-10T10:20:09;100537.59;;;18.22;100.00
1207;BME280;593;53.184;8.216;2023-05-10T10:22:36;100534.19;;;18.25;100.00
1207;BME280;593;53.184;8.216;2023-05-10T10:25:01;100539.03;;;18.28;100.00
1207;BME280;593;53.184;8.216;2023-05-10T10:30:23;100540.75;;;18.33;100.00
1207;BME280;593;53.184;8.216;2023-05-10T10:35:52;100548.34;;;18.36;100.00
1207;BME280;593;53.184;8.216;2023-05-10T10:38:18;100540.75;;;18.33;100.00
1207;BME280;593;53.184;8.216;2023-05-10T10:40:43;100556.72;;;18.39;100.00
1207;BME280;593;53.184;8.216;2023-05-10T10:43:22;100560.75;;;18.42;100.00
1207;BME280;593;53.184;8.216;2023-05-10T10:48:35;100552.97;;;18.44;100.00
1207;BME280;593;53.184;8.216;2023-05-10T10:51:00;100558.00;;;18.42;100.00
1207;BME280;593;53.184;8.216;2023-05-10T10:53:27;100555.72;;;18.44;100.00
1207;BME280;593;53.184;8.216;2023-05-10T10:56:04;100561.06;;;18.49;100.00
1207;BME280;593;53.184;8.216;2023-05-10T10:58:31;100561.06;;;18.49;100.00
1207;BME280;593;53.184;8.216;2023-05-10T11:01:11;100559.09;;;18.49;100.00
1207;BME280;593;53.184;8.216;2023-05-10T11:03:37;100577.25;;;18.50;100.00
1207;BME280;593;53.184;8.216;2023-05-10T11:06:02;100569.00;;;18.50;100.00
1207;BME280;593;53.184;8.216;2023-05-10T11:08:32;100573.03;;;18.53;100.00
1207;BME280;593;53.184;8.216;2023-05-10T11:16:22;100579.47;;;18.57;100.00
1207;BME280;593;53.184;8.216;2023-05-10T11:19:09;100577.97;;;18.60;100.00
1207;BME280;593;53.184;8.216;2023-05-10T11:21:51;100582.81;;;18.63;100.00
1207;BME280;593;53.184;8.216;2023-05-10T11:24:19;100585.22;;;18.64;100.00
1207;BME280;593;53.184;8.216;2023-05-10T11:26:45;100594.00;;;18.66;100.00
1207;BME280;593;53.184;8.216;2023-05-10T11:29:12;100593.63;;;18.68;100.00
1207;BME280;593;53.184;8.216;2023-05-10T11:31:43;100592.81;;;18.67;100.00
1207;BME280;593;53.184;8.216;2023-05-10T11:34:09;100603.19;;;18.70;100.00
1207;BME280;593;53.184;8.216;2023-05-10T11:36:35;100592.63;;;18.72;100.00
1207;BME280;593;53.184;8.216;2023-05-10T11:39:02;100611.25;;;18.75;100.00
1207;BME280;593;53.184;8.216;2023-05-10T11:41:29;100609.63;;;18.74;100.00
1207;BME280;593;53.184;8.216;2023-05-10T11:43:56;100617.66;;;18.79;100.00
1207;BME280;593;53.184;8.216;2023-05-10T11:46:23;100615.72;;;18.80;100.00
1207;BME280;593;53.184;8.216;2023-05-10T11:48:52;100612.50;;;18.78;100.00
1207;BME280;593;53.184;8.216;2023-05-10T11:51:24;100614.59;;;18.81;100.00
1207;BME280;593;53.184;8.216;2023-05-10T11:53:52;100615.72;;;18.80;100.00
1207;BME280;593;53.184;8.216;2023-05-10T11:56:18;100628.03;;;18.82;100.00
1207;BME280;593;53.184;8.216;2023-05-10T11:58:43;100639.06;;;18.82;100.00
1207;BME280;593;53.184;8.216;2023-05-10T12:01:09;100630.19;;;18.77;100.00
1207;BME280;593;53.184;8.216;2023-05-10T12:03:36;100642.00;;;18.77;100.00
1207;BME280;593;53.184;8.216;2023-05-10T12:06:02;100648.00;;;18.79;100.00
1207;BME280;593;53.184;8.216;2023-05-10T12:08:29;100646.03;;;18.80;100.00
1207;BME280;593;53.184;8.216;2023-05-10T12:11:09;100655.94;;;18.81;100.00
1207;BME280;593;53.184;8.216;2023-05-10T12:13:39;100658.22;;;18.79;100.00
1207;BME280;593;53.184;8.216;2023-05-10T12:16:15;100663.25;;;18.77;100.00
1207;BME280;593;53.184;8.216;2023-05-10T12:18:41;100670.03;;;18.79;100.00
1207;BME280;593;53.184;8.216;2023-05-10T12:21:11;100663.75;;;18.79;100.00
1207;BME280;593;53.184;8.216;2023-05-10T12:23:38;100676.72;;;18.78;100.00
1207;BME280;593;53.184;8.216;2023-05-10T12:26:04;100685.31;;;18.77;100.00
1207;BME280;593;53.184;8.216;2023-05-10T12:28:30;100682.91;;;18.75;100.00
1207;BME280;593;53.184;8.216;2023-05-10T12:30:57;100677.38;;;18.75;100.00
1207;BME280;593;53.184;8.216;2023-05-10T12:33:23;100679.22;;;18.71;100.00
1207;BME280;593;53.184;8.216;2023-05-10T12:35:50;100681.16;;;18.71;100.00
1207;BME280;593;53.184;8.216;2023-05-10T12:38:42;100689.88;;;18.73;100.00
1207;BME280;593;53.184;8.216;2023-05-10T12:41:13;100685.50;;;18.72;100.00
1207;BME280;593;53.184;8.216;2023-05-10T12:43:39;100689.41;;;18.71;100.00
1207;BME280;593;53.184;8.216;2023-05-10T12:46:12;100689.72;;;18.69;100.00
1207;BME280;593;53.184;8.216;2023-05-10T12:48:39;100692.50;;;18.69;100.00
1207;BME280;593;53.184;8.216;2023-05-10T12:51:05;100692.84;;;18.68;100.00
1207;BME280;593;53.184;8.216;2023-05-10T12:53:34;100691.22;;;18.67;100.00
1207;BME280;593;53.184;8.216;2023-05-10T12:56:00;100696.88;;;18.70;100.00
1207;BME280;593;53.184;8.216;2023-05-10T12:58:34;100688.47;;;18.67;100.00
1207;BME280;593;53.184;8.216;2023-05-10T13:00:59;100703.03;;;18.67;100.00
1207;BME280;593;53.184;8.216;2023-05-10T13:03:25;100708.72;;;18.71;100.00
1207;BME280;593;53.184;8.216;2023-05-10T13:05:50;100712.13;;;18.68;100.00
1207;BME280;593;53.184;8.216;2023-05-10T13:08:18;100710.31;;;18.72;100.00
1207;BME280;593;53.184;8.216;2023-05-10T13:10:53;100712.28;;;18.71;100.00
1207;BME280;593;53.184;8.216;2023-05-10T13:13:18;100710.31;;;18.72;100.00
1207;BME280;593;53.184;8.216;2023-05-10T13:15:44;100711.47;;;18.71;100.00
1207;BME280;593;53.184;8.216;2023-05-10T13:18:09;100711.59;;;18.74;100.00
1207;BME280;593;53.184;8.216;2023-05-10T13:20:35;100707.22;;;18.73;100.00
1207;BME280;593;53.184;8.216;2023-05-10T13:23:00;100703.19;;;18.71;100.00
1207;BME280;593;53.184;8.216;2023-05-10T13:25:26;100701.72;;;18.73;100.00
1207;BME280;593;53.184;8.216;2023-05-10T13:27:51;100711.94;;;18.73;100.00
1207;BME280;593;53.184;8.216;2023-05-10T13:30:16;100715.50;;;18.73;100.00
1207;BME280;593;53.184;8.216;2023-05-10T13:32:41;100715.16;;;18.75;100.00
1207;BME280;593;53.184;8.216;2023-05-10T13:35:07;100714.34;;;18.74;100.00
1207;BME280;593;53.184;8.216;2023-05-10T13:37:32;100714.34;;;18.74;100.00
1207;BME280;593;53.184;8.216;2023-05-10T13:40:01;100723.09;;;18.76;100.00
1207;BME280;593;53.184;8.216;2023-05-10T13:42:26;100729.75;;;18.75;100.00
1207;BME280;593;53.184;8.216;2023-05-10T13:44:52;100727.00;;;18.75;100.00